Sand Hill, Texas
Current Conditions -  °F | °C
As of 7:15 PM on Saturday 22 Nov 2014 (Local Time) from KOSA Reporting Station
Overcast Overcast  
Wind Chill: 65°   Ceiling: 1900
Heat Index: 65°   Visibility: 10mi
Dew Point: 59°   Wind: 8mph
Humidity: 81%   Direction: 130°SE
Pressure: 29.88"   Gusts: NA
Location:  32.7353°N, 94.9492°W
Report Text: KOSA 230115Z AUTO 13007KT 10SM OVC019 18/15 A2988 RMK AO1 T01820148
Loading
Personal Weather Stations






























Interactive Weather Map New forecast layout! Learn more

10-Day Weather Forecast

Advertisements
Track Severe Weather on mobile